Time;durP1;ratioP1;P1;durP2;ratioP2;P2;SDS_P1;SDS_P2;PMS_P1;PMS_P2;Temp;Humidity;BMP_temperature;BMP_pressure;BME280_temperature;BME280_humidity;BME280_pressure;Samples;Min_cycle;Max_cycle;Signal;HPM_P1;HPM_P2
2024/01/17 00:00:10;;;;;;;1.90;1.80;;;-2.20;98.20;;;;;;4995067;28;20972;-75
2024/01/17 00:02:36;;;;;;;1.90;1.80;;;-2.10;98.20;;;;;;4992855;28;20518;-74
2024/01/17 00:05:04;;;;;;;1.90;1.80;;;-2.10;98.20;;;;;;4993458;28;20487;-75
2024/01/17 00:07:31;;;;;;;1.90;1.80;;;-2.10;98.20;;;;;;4990066;28;20563;-75
2024/01/17 00:09:59;;;;;;;1.80;1.70;;;-2.00;98.20;;;;;;4991486;28;20465;-74
2024/01/17 00:12:25;;;;;;;1.83;1.73;;;-2.00;98.20;;;;;;4990897;28;20479;-74
2024/01/17 00:14:52;;;;;;;1.97;1.87;;;-1.90;98.20;;;;;;4992759;28;20477;-75
2024/01/17 00:17:19;;;;;;;2.03;1.93;;;-1.90;98.20;;;;;;4999217;28;20476;-74
2024/01/17 00:19:46;;;;;;;2.33;2.13;;;-1.90;98.20;;;;;;4991094;28;20556;-74
2024/01/17 00:22:15;;;;;;;2.33;2.13;;;-1.90;98.20;;;;;;4983492;28;20524;-74
2024/01/17 00:24:41;;;;;;;2.27;2.07;;;-2.00;98.20;;;;;;4989800;28;20552;-74
2024/01/17 00:27:09;;;;;;;2.10;2.00;;;-2.00;98.20;;;;;;4993855;28;20956;-74
2024/01/17 00:29:36;;;;;;;1.80;1.70;;;-2.00;98.20;;;;;;4998947;28;20494;-74
2024/01/17 00:32:03;;;;;;;2.10;2.00;;;-2.00;98.20;;;;;;4994685;28;20525;-74
2024/01/17 00:34:30;;;;;;;1.80;1.70;;;-2.00;98.20;;;;;;4990913;28;20863;-74
2024/01/17 00:36:57;;;;;;;1.90;1.80;;;-2.10;98.20;;;;;;4989665;28;20552;-74
2024/01/17 00:39:24;;;;;;;1.90;1.80;;;-2.10;98.20;;;;;;4995082;28;20475;-74
2024/01/17 00:41:51;;;;;;;1.80;1.70;;;-2.10;98.20;;;;;;4990813;28;20492;-74
2024/01/17 00:44:21;;;;;;;1.80;1.70;;;-2.20;98.20;;;;;;4995118;28;20926;-75
2024/01/17 00:46:48;;;;;;;1.77;1.67;;;-2.20;98.20;;;;;;4994105;28;20845;-74
2024/01/17 00:49:15;;;;;;;2.10;2.00;;;-2.20;98.20;;;;;;4995062;28;20460;-75
2024/01/17 00:51:42;;;;;;;1.90;1.80;;;-2.20;98.20;;;;;;4989619;28;20461;-75
2024/01/17 00:54:10;;;;;;;2.00;1.90;;;-2.20;98.20;;;;;;4993107;28;20484;-74
2024/01/17 00:56:37;;;;;;;1.80;1.70;;;-2.20;98.20;;;;;;4990885;28;20461;-74
2024/01/17 00:59:04;;;;;;;2.93;2.73;;;-2.20;98.20;;;;;;4991215;28;20474;-74
2024/01/17 01:01:32;;;;;;;1.97;1.87;;;-2.20;98.20;;;;;;4996035;28;20465;-74
2024/01/17 01:03:59;;;;;;;1.90;1.80;;;-2.20;98.20;;;;;;4992357;28;20488;-75
2024/01/17 01:06:26;;;;;;;2.00;1.90;;;-2.20;98.20;;;;;;4992346;28;20461;-75
2024/01/17 01:08:52;;;;;;;1.90;1.80;;;-2.20;98.20;;;;;;4986266;28;20500;-75
2024/01/17 01:11:19;;;;;;;2.07;1.97;;;-2.20;98.20;;;;;;4990510;28;20869;-74
2024/01/17 01:13:46;;;;;;;1.90;1.80;;;-2.20;98.20;;;;;;4987784;28;20834;-75
2024/01/17 01:16:12;;;;;;;1.73;1.63;;;-2.20;98.20;;;;;;4988897;28;20480;-74
2024/01/17 01:18:41;;;;;;;1.93;1.83;;;-2.20;98.20;;;;;;4986797;28;20947;-74
2024/01/17 01:21:07;;;;;;;2.07;1.97;;;-2.20;98.20;;;;;;4997166;28;20968;-74
2024/01/17 01:23:34;;;;;;;1.80;1.70;;;-2.20;98.20;;;;;;4986697;28;21027;-74
2024/01/17 01:26:01;;;;;;;1.93;1.83;;;-2.20;98.20;;;;;;4986918;28;20481;-74
2024/01/17 01:28:27;;;;;;;2.10;2.00;;;-2.10;98.20;;;;;;4988014;28;20556;-74
2024/01/17 01:30:54;;;;;;;2.80;2.60;;;-2.20;98.20;;;;;;4980844;28;20469;-76
2024/01/17 01:33:22;;;;;;;2.00;1.90;;;-2.20;98.20;;;;;;4984866;28;20585;-73
2024/01/17 01:35:50;;;;;;;2.00;1.90;;;-2.10;98.20;;;;;;4988440;28;20480;-73
2024/01/17 01:38:16;;;;;;;2.37;2.17;;;-2.20;98.20;;;;;;4988102;28;20466;-73
2024/01/17 01:40:44;;;;;;;1.90;1.80;;;-2.20;98.20;;;;;;4998821;28;20469;-73
2024/01/17 01:43:20;;;;;;;1.90;1.80;;;-2.20;98.20;;;;;;4995507;28;20469;-73
2024/01/17 01:46:09;;;;;;;1.93;1.83;;;-2.20;98.20;;;;;;4994023;28;20491;-74
2024/01/17 01:48:36;;;;;;;1.90;1.80;;;-2.20;98.20;;;;;;4994667;28;20466;-73
2024/01/17 01:51:05;;;;;;;1.90;1.80;;;-2.20;98.20;;;;;;4991903;28;20853;-73
2024/01/17 01:53:34;;;;;;;2.50;2.30;;;-2.20;98.20;;;;;;4994399;28;20630;-73
2024/01/17 01:56:01;;;;;;;2.00;1.90;;;-2.20;98.20;;;;;;4996411;28;20481;-73
2024/01/17 01:58:29;;;;;;;1.80;1.70;;;-2.20;98.20;;;;;;4990843;28;20479;-73
2024/01/17 02:00:57;;;;;;;2.00;1.90;;;-2.20;98.20;;;;;;4991572;28;20475;-74
2024/01/17 02:03:26;;;;;;;1.80;1.70;;;-2.20;98.20;;;;;;4988353;28;20499;-73
2024/01/17 02:05:54;;;;;;;2.10;2.00;;;-2.20;98.20;;;;;;4990048;28;20484;-74
2024/01/17 02:08:22;;;;;;;2.00;1.90;;;-2.10;98.20;;;;;;4993571;28;20461;-74
2024/01/17 02:10:49;;;;;;;2.00;1.90;;;-2.20;98.20;;;;;;4992223;28;20472;-74
2024/01/17 02:13:16;;;;;;;2.07;1.97;;;-2.20;98.20;;;;;;4998762;28;20468;-73
2024/01/17 02:15:42;;;;;;;2.10;2.00;;;-2.20;98.20;;;;;;4987239;28;20584;-74
2024/01/17 02:18:09;;;;;;;2.00;1.90;;;-2.20;98.20;;;;;;4978204;28;20462;-73
2024/01/17 02:20:36;;;;;;;2.00;1.90;;;-2.20;98.20;;;;;;4985555;28;20465;-74
2024/01/17 02:23:21;;;;;;;2.07;1.97;;;-2.20;98.20;;;;;;4981835;28;20461;-73
2024/01/17 02:25:51;;;;;;;1.80;1.70;;;-2.20;98.20;;;;;;4981141;28;20554;-73
2024/01/17 02:28:19;;;;;;;2.00;1.90;;;-2.20;98.20;;;;;;4983917;28;20473;-73
2024/01/17 02:30:46;;;;;;;1.90;1.80;;;-2.20;98.20;;;;;;4980413;28;20474;-74
2024/01/17 02:33:13;;;;;;;1.90;1.80;;;-2.20;98.20;;;;;;4985207;28;20472;-73
2024/01/17 02:35:40;;;;;;;2.07;1.97;;;-2.20;98.20;;;;;;4985991;28;20488;-74
2024/01/17 02:38:07;;;;;;;1.97;1.87;;;-2.20;98.20;;;;;;4982189;28;20474;-74
2024/01/17 02:40:34;;;;;;;1.90;1.80;;;-2.20;98.20;;;;;;4990614;28;20468;-74
2024/01/17 02:43:02;;;;;;;1.90;1.80;;;-2.30;98.20;;;;;;4985536;28;20472;-74
2024/01/17 02:45:29;;;;;;;2.10;2.00;;;-2.30;98.20;;;;;;4987496;28;20491;-75
2024/01/17 02:47:56;;;;;;;2.37;2.20;;;-2.30;98.20;;;;;;4987819;28;20465;-74
2024/01/17 02:50:23;;;;;;;2.10;2.00;;;-2.30;98.20;;;;;;4986016;28;20544;-74
2024/01/17 02:52:52;;;;;;;1.97;1.87;;;-2.30;98.20;;;;;;4986068;28;20733;-74
2024/01/17 02:55:20;;;;;;;1.70;1.60;;;-2.30;98.20;;;;;;4984356;28;20488;-74
2024/01/17 02:57:47;;;;;;;2.10;2.00;;;-2.30;98.20;;;;;;4988294;28;20515;-74
2024/01/17 03:00:16;;;;;;;1.93;1.83;;;-2.30;98.20;;;;;;4980208;28;20560;-75
2024/01/17 03:02:42;;;;;;;1.90;1.80;;;-2.40;98.20;;;;;;4988542;28;20483;-74
2024/01/17 03:05:10;;;;;;;2.00;1.90;;;-2.40;98.20;;;;;;4981798;28;20495;-75
2024/01/17 03:07:37;;;;;;;1.90;1.80;;;-2.40;98.20;;;;;;4982139;28;20474;-74
2024/01/17 03:10:05;;;;;;;1.90;1.80;;;-2.40;98.20;;;;;;4986042;28;20480;-75
2024/01/17 03:12:38;;;;;;;1.90;1.80;;;-2.40;98.20;;;;;;4988940;28;20872;-74
2024/01/17 03:15:05;;;;;;;1.90;1.80;;;-2.40;98.20;;;;;;4985443;28;20483;-74
2024/01/17 03:17:34;;;;;;;1.90;1.80;;;-2.40;98.20;;;;;;4984790;28;20469;-74
2024/01/17 03:20:01;;;;;;;1.80;1.70;;;-2.40;98.20;;;;;;4986383;28;20465;-74
2024/01/17 03:22:28;;;;;;;1.97;1.87;;;-2.40;98.20;;;;;;4981714;28;20906;-75
2024/01/17 03:24:55;;;;;;;1.90;1.80;;;-2.40;98.20;;;;;;4983564;28;20499;-74
2024/01/17 03:27:21;;;;;;;4.27;3.97;;;-2.40;98.20;;;;;;4986327;28;20465;-74
2024/01/17 03:29:48;;;;;;;2.07;1.97;;;-2.40;98.20;;;;;;4986399;28;20468;-74
2024/01/17 03:32:15;;;;;;;2.57;2.37;;;-2.40;98.20;;;;;;4982450;28;20465;-74
2024/01/17 03:34:43;;;;;;;2.10;2.00;;;-2.40;98.20;;;;;;4985060;28;20799;-74
2024/01/17 03:37:10;;;;;;;1.90;1.80;;;-2.40;98.20;;;;;;4979244;28;20840;-74
2024/01/17 03:39:37;;;;;;;2.00;1.90;;;-2.40;98.20;;;;;;4984911;28;20541;-74
2024/01/17 03:42:04;;;;;;;1.80;1.70;;;-2.40;98.20;;;;;;4981763;28;20457;-75
2024/01/17 03:44:31;;;;;;;2.00;1.90;;;-2.40;98.20;;;;;;4983091;28;20524;-75
2024/01/17 03:46:57;;;;;;;1.90;1.80;;;-2.50;98.20;;;;;;4983396;28;20465;-74
2024/01/17 03:49:24;;;;;;;1.90;1.80;;;-2.40;98.20;;;;;;4981554;28;20969;-76
2024/01/17 03:51:54;;;;;;;2.10;2.00;;;-2.50;98.20;;;;;;4979294;28;20473;-74
2024/01/17 03:54:21;;;;;;;1.90;1.80;;;-2.50;98.20;;;;;;4981877;28;20478;-74
2024/01/17 03:56:48;;;;;;;1.97;1.87;;;-2.50;98.20;;;;;;4980584;28;20556;-74
2024/01/17 03:59:15;;;;;;;1.93;1.83;;;-2.50;98.20;;;;;;4984939;28;20465;-74
2024/01/17 04:01:45;;;;;;;1.90;1.80;;;-2.40;98.20;;;;;;4981416;28;20468;-75
2024/01/17 04:04:12;;;;;;;1.90;1.80;;;-2.50;98.20;;;;;;4985368;28;20982;-74
2024/01/17 04:06:39;;;;;;;2.00;1.90;;;-2.50;98.20;;;;;;4987452;28;20876;-74
2024/01/17 04:09:07;;;;;;;1.90;1.80;;;-2.50;98.20;;;;;;4980134;28;20461;-74
2024/01/17 04:11:34;;;;;;;1.90;1.80;;;-2.50;98.20;;;;;;4983001;28;20466;-74
2024/01/17 04:14:01;;;;;;;1.97;1.87;;;-2.50;98.20;;;;;;4987507;28;20457;-74
2024/01/17 04:16:28;;;;;;;2.00;1.90;;;-2.50;98.20;;;;;;4984075;28;21073;-74
2024/01/17 04:18:55;;;;;;;1.90;1.80;;;-2.50;98.20;;;;;;4986554;28;20840;-75
2024/01/17 04:21:22;;;;;;;1.70;1.60;;;-2.50;98.20;;;;;;4980710;28;20458;-75
2024/01/17 04:23:50;;;;;;;1.90;1.80;;;-2.50;98.20;;;;;;4984582;28;20484;-75
2024/01/17 04:26:25;;;;;;;1.90;1.80;;;-2.40;98.20;;;;;;4994969;28;20957;-75
2024/01/17 04:28:52;;;;;;;1.90;1.80;;;-2.40;98.20;;;;;;4980467;28;20459;-74
2024/01/17 04:31:24;;;;;;;2.10;2.00;;;-2.40;98.20;;;;;;4994189;28;20569;-74
2024/01/17 04:33:51;;;;;;;1.90;1.80;;;-2.40;98.20;;;;;;4989485;28;20461;-74
2024/01/17 04:36:18;;;;;;;1.80;1.70;;;-2.40;98.20;;;;;;4992065;28;20524;-75
2024/01/17 04:38:45;;;;;;;1.90;1.80;;;-2.40;98.20;;;;;;4988784;28;20457;-72
2024/01/17 04:41:12;;;;;;;2.00;1.90;;;-2.40;98.20;;;;;;4990780;28;20464;-75
2024/01/17 04:43:42;;;;;;;1.90;1.80;;;-2.40;98.20;;;;;;4988462;28;20658;-74
2024/01/17 04:46:09;;;;;;;1.90;1.80;;;-2.40;98.20;;;;;;4993929;28;21164;-75
2024/01/17 04:48:36;;;;;;;2.17;2.07;;;-2.40;98.20;;;;;;4985224;28;20512;-75
2024/01/17 04:51:05;;;;;;;3.27;3.03;;;-2.40;98.20;;;;;;4990165;28;20519;-75
2024/01/17 04:53:32;;;;;;;1.90;1.80;;;-2.40;98.20;;;;;;4986493;28;20956;-74
2024/01/17 04:55:59;;;;;;;2.10;2.00;;;-2.40;98.20;;;;;;4989998;28;20548;-74
2024/01/17 04:58:26;;;;;;;1.90;1.80;;;-2.40;98.20;;;;;;4992981;28;20467;-74
2024/01/17 05:00:54;;;;;;;2.00;1.90;;;-2.40;98.20;;;;;;4991681;28;20500;-74
2024/01/17 05:03:21;;;;;;;2.57;2.37;;;-2.40;98.20;;;;;;4991998;28;20971;-74
2024/01/17 05:05:48;;;;;;;2.00;1.90;;;-2.40;98.20;;;;;;4989971;28;20924;-74
2024/01/17 05:08:15;;;;;;;1.90;1.80;;;-2.40;98.20;;;;;;4996042;28;20465;-73
2024/01/17 05:10:45;;;;;;;2.00;1.90;;;-2.40;98.20;;;;;;4988494;28;20465;-75
2024/01/17 05:13:12;;;;;;;1.90;1.80;;;-2.40;98.20;;;;;;4990603;28;20550;-74
2024/01/17 05:15:39;;;;;;;1.80;1.70;;;-2.40;98.20;;;;;;4988915;28;20492;-75
2024/01/17 05:18:08;;;;;;;2.10;2.00;;;-2.40;98.20;;;;;;4986946;28;20842;-75
2024/01/17 05:20:35;;;;;;;2.10;2.00;;;-2.40;98.20;;;;;;4986411;28;20667;-74
2024/01/17 05:23:03;;;;;;;2.00;1.90;;;-2.40;98.20;;;;;;4983189;28;20874;-76
2024/01/17 05:25:29;;;;;;;2.00;1.90;;;-2.40;98.20;;;;;;4985520;28;20497;-75
2024/01/17 05:27:56;;;;;;;1.90;1.80;;;-2.40;98.20;;;;;;4987151;28;20472;-74
2024/01/17 05:30:24;;;;;;;2.77;2.57;;;-2.40;98.20;;;;;;4985065;28;20457;-74
2024/01/17 05:32:51;;;;;;;1.90;1.80;;;-2.40;98.20;;;;;;4984177;28;20496;-75
2024/01/17 05:35:21;;;;;;;2.00;1.90;;;-2.30;98.20;;;;;;4996301;28;20519;-75
2024/01/17 05:37:47;;;;;;;1.80;1.70;;;-2.40;98.20;;;;;;4982614;28;20471;-75
2024/01/17 05:40:15;;;;;;;1.90;1.80;;;-2.30;98.20;;;;;;4987686;28;20477;-74
2024/01/17 05:42:43;;;;;;;1.90;1.80;;;-2.30;98.20;;;;;;4988827;28;20467;-74
2024/01/17 05:45:09;;;;;;;2.03;1.93;;;-2.30;98.20;;;;;;4991496;28;21008;-75
2024/01/17 05:47:37;;;;;;;1.70;1.60;;;-2.30;98.20;;;;;;4987953;28;20863;-73
2024/01/17 05:50:04;;;;;;;1.90;1.80;;;-2.30;98.20;;;;;;4990168;28;20508;-73
2024/01/17 05:52:32;;;;;;;2.30;2.10;;;-2.30;98.20;;;;;;4984538;28;20988;-75
2024/01/17 05:54:58;;;;;;;1.90;1.80;;;-2.30;98.20;;;;;;4987062;28;20477;-76
2024/01/17 05:57:25;;;;;;;1.90;1.80;;;-2.30;98.20;;;;;;4988759;28;20650;-75
2024/01/17 05:59:52;;;;;;;2.00;1.90;;;-2.30;98.20;;;;;;4987189;28;20495;-76
2024/01/17 06:02:19;;;;;;;1.90;1.80;;;-2.20;98.20;;;;;;4991303;28;20460;-75
2024/01/17 06:04:45;;;;;;;1.80;1.70;;;-2.20;98.20;;;;;;4987115;28;20519;-75
2024/01/17 06:07:12;;;;;;;1.90;1.80;;;-2.20;98.20;;;;;;4990047;28;20464;-75
2024/01/17 06:09:43;;;;;;;1.90;1.80;;;-2.20;98.20;;;;;;4987013;28;20508;-75
2024/01/17 06:12:14;;;;;;;1.90;1.80;;;-2.20;98.20;;;;;;4992556;28;20469;-73
2024/01/17 06:14:41;;;;;;;2.20;2.10;;;-2.20;98.20;;;;;;4989668;28;20491;-73
2024/01/17 06:17:08;;;;;;;1.90;1.80;;;-2.20;98.20;;;;;;4983254;28;20913;-74
2024/01/17 06:19:35;;;;;;;2.10;2.00;;;-2.20;98.20;;;;;;4988531;28;20475;-74
2024/01/17 06:22:02;;;;;;;1.90;1.80;;;-2.10;98.20;;;;;;4986522;28;20470;-74
2024/01/17 06:24:29;;;;;;;1.90;1.80;;;-2.10;98.20;;;;;;4989276;28;20488;-75
2024/01/17 06:26:57;;;;;;;1.90;1.80;;;-2.10;98.20;;;;;;4985464;28;20473;-72
2024/01/17 06:29:26;;;;;;;1.90;1.80;;;-2.10;98.20;;;;;;4988876;28;20461;-75
2024/01/17 06:31:53;;;;;;;2.03;1.93;;;-2.10;98.20;;;;;;4999475;28;20464;-74
2024/01/17 06:34:20;;;;;;;2.40;2.20;;;-2.10;98.20;;;;;;4990263;28;20555;-75
2024/01/17 06:36:46;;;;;;;1.80;1.70;;;-2.10;98.20;;;;;;4989548;28;20459;-75
2024/01/17 06:39:13;;;;;;;1.90;1.80;;;-2.10;98.20;;;;;;4991677;28;20461;-74
2024/01/17 06:41:40;;;;;;;2.17;2.07;;;-2.10;98.20;;;;;;4997973;28;20476;-75
2024/01/17 06:44:09;;;;;;;1.90;1.80;;;-2.10;98.20;;;;;;4994609;28;20466;-76
2024/01/17 06:46:36;;;;;;;1.90;1.80;;;-2.10;98.20;;;;;;4983217;28;20543;-76
2024/01/17 06:49:03;;;;;;;1.90;1.80;;;-2.10;98.20;;;;;;4988548;28;20468;-75
2024/01/17 06:51:30;;;;;;;2.00;1.90;;;-2.00;98.20;;;;;;4987273;28;20963;-76
2024/01/17 06:53:57;;;;;;;2.00;1.90;;;-2.00;98.20;;;;;;4983650;28;20787;-76
2024/01/17 06:56:24;;;;;;;1.90;1.80;;;-2.00;98.20;;;;;;4979559;28;20807;-73
2024/01/17 06:58:50;;;;;;;8.60;8.03;;;-2.00;98.20;;;;;;4989693;28;20464;-76
2024/01/17 07:01:18;;;;;;;1.90;1.80;;;-2.00;98.20;;;;;;4991460;28;20465;-76
2024/01/17 07:03:45;;;;;;;1.90;1.80;;;-2.00;98.20;;;;;;4986456;28;20472;-75
2024/01/17 07:06:12;;;;;;;2.23;2.03;;;-2.00;98.20;;;;;;4987451;28;20491;-74
2024/01/17 07:08:39;;;;;;;2.10;2.00;;;-1.90;98.20;;;;;;4986998;28;20466;-77
2024/01/17 07:11:06;;;;;;;1.93;1.83;;;-1.90;98.20;;;;;;4982690;28;20472;-77
2024/01/17 07:13:33;;;;;;;2.53;2.37;;;-1.90;98.20;;;;;;4988379;28;20503;-74
2024/01/17 07:15:59;;;;;;;2.00;1.90;;;-1.90;98.20;;;;;;4992420;28;20485;-71
2024/01/17 07:18:27;;;;;;;1.87;1.77;;;-1.90;98.20;;;;;;4988451;28;20975;-76
2024/01/17 07:20:54;;;;;;;2.00;1.90;;;-1.90;98.20;;;;;;4994817;28;20464;-78
2024/01/17 07:23:21;;;;;;;2.10;2.00;;;-1.90;98.20;;;;;;4990858;28;20861;-75
2024/01/17 07:25:48;;;;;;;1.80;1.70;;;-1.90;98.20;;;;;;4991095;28;20500;-77
2024/01/17 07:28:15;;;;;;;1.90;1.80;;;-1.90;98.20;;;;;;4994093;28;20465;-77
2024/01/17 07:30:42;;;;;;;1.90;1.80;;;-1.90;98.20;;;;;;4992349;28;20461;-77
2024/01/17 07:33:09;;;;;;;2.07;1.97;;;-1.90;98.20;;;;;;4989525;28;20527;-75
2024/01/17 07:35:37;;;;;;;6.43;5.07;;;-1.80;98.20;;;;;;4991780;28;20481;-76
2024/01/17 07:38:04;;;;;;;2.30;2.10;;;-1.80;98.20;;;;;;4987390;28;20561;-76
2024/01/17 07:40:31;;;;;;;2.00;1.90;;;-1.80;98.20;;;;;;4983389;28;20952;-76
2024/01/17 07:42:58;;;;;;;1.70;1.60;;;-1.80;98.20;;;;;;4991047;28;20480;-77
2024/01/17 07:45:25;;;;;;;2.03;1.93;;;-1.80;98.20;;;;;;4984589;28;20499;-76
2024/01/17 07:47:52;;;;;;;1.90;1.80;;;-1.70;98.20;;;;;;4988935;28;20967;-73
2024/01/17 07:50:19;;;;;;;1.80;1.70;;;-1.70;98.20;;;;;;4991947;28;20457;-76
2024/01/17 07:52:47;;;;;;;2.47;2.27;;;-1.70;98.20;;;;;;4985826;28;20566;-75
2024/01/17 07:55:15;;;;;;;2.00;1.90;;;-1.70;98.20;;;;;;4985434;28;20500;-76
2024/01/17 07:57:42;;;;;;;1.80;1.70;;;-1.70;98.20;;;;;;4984780;28;20515;-75
2024/01/17 08:00:11;;;;;;;1.80;1.70;;;-1.70;98.20;;;;;;4986823;28;20467;-76
2024/01/17 08:02:38;;;;;;;1.90;1.80;;;-1.70;98.20;;;;;;4984810;28;20478;-75
2024/01/17 08:05:05;;;;;;;1.80;1.70;;;-1.70;98.20;;;;;;4987589;28;20484;-75
2024/01/17 08:07:32;;;;;;;1.97;1.87;;;-1.70;98.20;;;;;;4988074;28;20468;-75
2024/01/17 08:10:01;;;;;;;2.10;2.00;;;-1.70;98.20;;;;;;4981867;28;20488;-76
2024/01/17 08:12:27;;;;;;;2.00;1.90;;;-1.60;98.20;;;;;;4988950;28;20468;-76
2024/01/17 08:14:54;;;;;;;1.80;1.70;;;-1.60;98.20;;;;;;4996325;28;20870;-76
2024/01/17 08:17:21;;;;;;;1.87;1.77;;;-1.60;98.20;;;;;;4990092;28;20975;-73
2024/01/17 08:19:48;;;;;;;1.80;1.70;;;-1.50;98.20;;;;;;4988250;28;20461;-74
2024/01/17 08:22:14;;;;;;;1.90;1.80;;;-1.50;98.20;;;;;;4990915;28;20471;-75
2024/01/17 08:24:42;;;;;;;1.83;1.73;;;-1.50;98.20;;;;;;4990471;28;20492;-76
2024/01/17 08:27:10;;;;;;;1.83;1.73;;;-1.40;98.20;;;;;;4989079;28;20489;-76
2024/01/17 08:29:37;;;;;;;1.80;1.70;;;-1.40;98.20;;;;;;4990794;28;20465;-76
2024/01/17 08:32:04;;;;;;;1.80;1.70;;;-1.30;98.20;;;;;;4991797;28;20637;-76
2024/01/17 08:34:31;;;;;;;1.80;1.70;;;-1.30;98.20;;;;;;4993185;28;21014;-77
2024/01/17 08:37:00;;;;;;;1.70;1.60;;;-1.30;98.20;;;;;;4991890;28;20462;-77
2024/01/17 08:41:56;;;;;;;1.90;1.80;;;-1.20;98.20;;;;;;4981055;23;21008;-76
2024/01/17 08:44:25;;;;;;;1.90;1.80;;;-1.20;98.20;;;;;;4962152;28;20473;-75
2024/01/17 08:46:52;;;;;;;3.73;3.53;;;-1.20;98.20;;;;;;4964300;28;20496;-77
2024/01/17 08:49:20;;;;;;;1.80;1.70;;;-1.20;98.20;;;;;;4960474;28;20470;-77
2024/01/17 08:51:47;;;;;;;1.80;1.70;;;-1.20;98.20;;;;;;4967829;28;21042;-77
2024/01/17 08:54:14;;;;;;;1.90;1.80;;;-1.20;98.20;;;;;;4967042;28;20849;-77
2024/01/17 08:56:40;;;;;;;1.80;1.70;;;-1.10;98.20;;;;;;4974391;28;20545;-77
2024/01/17 08:59:07;;;;;;;1.80;1.70;;;-1.10;98.20;;;;;;4968436;28;20465;-77
2024/01/17 09:01:37;;;;;;;1.80;1.70;;;-1.10;98.20;;;;;;4966650;28;20496;-78
2024/01/17 09:04:05;;;;;;;1.80;1.70;;;-1.00;98.20;;;;;;4972139;28;20481;-78
2024/01/17 09:06:32;;;;;;;1.80;1.70;;;-1.00;98.20;;;;;;4975204;28;20508;-78
2024/01/17 09:08:59;;;;;;;1.87;1.77;;;-0.90;98.20;;;;;;4967741;28;20544;-79
2024/01/17 09:11:26;;;;;;;1.80;1.70;;;-0.90;98.20;;;;;;4970984;28;20486;-77
2024/01/17 09:13:52;;;;;;;2.73;2.53;;;-0.90;98.20;;;;;;4971114;28;20470;-75
2024/01/17 09:16:19;;;;;;;1.90;1.80;;;-0.90;98.20;;;;;;4970558;28;20477;-78
2024/01/17 09:18:47;;;;;;;1.93;1.83;;;-0.90;98.20;;;;;;4973318;28;20461;-79
2024/01/17 09:21:14;;;;;;;1.90;1.80;;;-0.80;98.20;;;;;;4969574;28;20487;-77
2024/01/17 09:23:41;;;;;;;1.90;1.80;;;-0.80;98.20;;;;;;4971156;28;20985;-78
2024/01/17 09:26:08;;;;;;;1.90;1.80;;;-0.80;98.20;;;;;;4968603;28;20490;-77
2024/01/17 09:28:35;;;;;;;1.70;1.60;;;-0.80;98.20;;;;;;4968911;28;20470;-78
2024/01/17 09:31:02;;;;;;;1.97;1.87;;;-0.70;98.20;;;;;;4968663;28;20536;-77
2024/01/17 09:33:29;;;;;;;1.80;1.70;;;-0.70;98.20;;;;;;4969284;28;20470;-77
2024/01/17 09:35:57;;;;;;;1.80;1.70;;;-0.70;98.20;;;;;;4969977;28;20466;-76
2024/01/17 09:38:24;;;;;;;1.73;1.63;;;-0.70;98.20;;;;;;4964438;28;20473;-78
2024/01/17 09:40:51;;;;;;;1.60;1.50;;;-0.70;98.20;;;;;;4967576;28;21023;-77
2024/01/17 09:43:18;;;;;;;1.70;1.60;;;-0.60;98.20;;;;;;4973060;28;20517;-77
2024/01/17 09:45:45;;;;;;;1.77;1.67;;;-0.60;98.20;;;;;;4977415;28;21014;-77
2024/01/17 09:48:15;;;;;;;2.50;2.30;;;-0.60;98.20;;;;;;4973773;28;20576;-77
2024/01/17 09:50:42;;;;;;;1.90;1.80;;;-0.60;98.20;;;;;;4974359;28;20483;-78
2024/01/17 09:53:14;;;;;;;2.60;2.40;;;-0.50;98.20;;;;;;4972666;28;20470;-78
2024/01/17 09:55:52;;;;;;;1.80;1.70;;;-0.40;98.20;;;;;;4978485;28;20485;-78
2024/01/17 09:58:20;;;;;;;1.70;1.60;;;-0.40;98.20;;;;;;4974254;28;20552;-77
2024/01/17 10:00:49;;;;;;;2.73;2.53;;;-0.40;98.20;;;;;;4968295;28;20906;-79
2024/01/17 10:03:20;;;;;;;2.30;2.10;;;-0.30;98.20;;;;;;4973159;28;20469;-79
2024/01/17 10:05:48;;;;;;;1.80;1.70;;;-0.30;98.20;;;;;;4977333;28;20468;-78
2024/01/17 10:08:19;;;;;;;1.80;1.70;;;-0.40;98.20;;;;;;4975704;28;20464;-79
2024/01/17 10:10:46;;;;;;;2.63;2.43;;;-0.40;98.20;;;;;;4974425;28;20494;-79
2024/01/17 10:13:13;;;;;;;1.70;1.60;;;-0.30;98.20;;;;;;4975496;28;20577;-78
2024/01/17 10:15:43;;;;;;;1.63;1.50;;;-0.30;98.20;;;;;;4976208;28;20470;-79
2024/01/17 10:18:11;;;;;;;1.63;1.50;;;-0.30;98.20;;;;;;4971223;28;20836;-79
2024/01/17 10:20:43;;;;;;;1.80;1.70;;;-0.30;98.20;;;;;;4975548;28;20549;-78
2024/01/17 10:23:10;;;;;;;1.80;1.70;;;-0.20;98.20;;;;;;4972374;28;20466;-79
2024/01/17 10:25:42;;;;;;;1.77;1.67;;;-0.20;98.20;;;;;;4978905;28;20556;-78
2024/01/17 10:28:09;;;;;;;2.73;2.53;;;-0.20;98.20;;;;;;4979354;28;20470;-78
2024/01/17 10:30:38;;;;;;;1.67;1.57;;;-0.10;98.20;;;;;;4982833;28;20579;-78
2024/01/17 10:33:07;;;;;;;1.67;1.57;;;-0.10;98.20;;;;;;4980065;28;21039;-78
2024/01/17 10:35:34;;;;;;;1.70;1.60;;;-0.10;98.20;;;;;;4980182;28;20503;-77
2024/01/17 10:38:01;;;;;;;1.63;1.50;;;-0.10;98.20;;;;;;4980779;28;20498;-80
2024/01/17 10:40:28;;;;;;;1.70;1.60;;;0.00;98.20;;;;;;4982406;28;20501;-77
2024/01/17 10:43:17;;;;;;;1.77;1.67;;;0.00;98.20;;;;;;4981937;28;20475;-77
2024/01/17 10:45:50;;;;;;;1.63;1.50;;;0.00;98.20;;;;;;4980726;28;20764;-78
2024/01/17 10:48:17;;;;;;;1.70;1.60;;;0.00;98.20;;;;;;4978764;28;20487;-77
2024/01/17 10:50:45;;;;;;;1.70;1.60;;;0.10;98.20;;;;;;4983274;28;20520;-78
2024/01/17 10:53:18;;;;;;;1.90;1.80;;;0.10;98.20;;;;;;4981910;28;20527;-78
2024/01/17 10:56:05;;;;;;;1.70;1.60;;;0.10;98.20;;;;;;4984559;28;20595;-78
2024/01/17 10:58:38;;;;;;;2.87;2.70;;;0.20;98.20;;;;;;4975334;28;20633;-78
2024/01/17 11:01:11;;;;;;;1.77;1.67;;;0.20;98.20;;;;;;4980912;28;20480;-76
2024/01/17 11:03:47;;;;;;;1.87;1.77;;;0.20;98.20;;;;;;4982632;28;20466;-77
2024/01/17 11:06:16;;;;;;;1.77;1.67;;;0.20;98.20;;;;;;4970378;28;20536;-78
2024/01/17 11:08:44;;;;;;;1.60;1.50;;;0.30;98.20;;;;;;4983118;28;20461;-78
2024/01/17 11:11:23;;;;;;;1.70;1.50;;;0.30;98.20;;;;;;4978456;28;20478;-78
2024/01/17 11:14:03;;;;;;;1.80;1.70;;;0.40;98.20;;;;;;4973933;28;20472;-79
2024/01/17 11:16:38;;;;;;;1.70;1.57;;;0.40;98.20;;;;;;4975140;28;20976;-78
2024/01/17 11:19:17;;;;;;;1.63;1.50;;;0.40;98.20;;;;;;4981801;28;20479;-78
2024/01/17 11:21:50;;;;;;;1.70;1.60;;;0.40;98.20;;;;;;4976083;28;20484;-77
2024/01/17 11:24:43;;;;;;;1.80;1.70;;;0.50;98.20;;;;;;4979977;28;20570;-78
2024/01/17 11:27:21;;;;;;;1.60;1.40;;;0.50;98.20;;;;;;4976852;28;20489;-78
2024/01/17 11:30:11;;;;;;;1.70;1.60;;;0.50;98.20;;;;;;4972231;28;20472;-77
2024/01/17 11:33:19;;;;;;;;;;;;;;;;;;;;;
2024/01/17 11:36:20;;;;;;;1.63;1.50;;;0.60;98.20;;;;;;4980961;28;20462;-78
2024/01/17 11:39:13;;;;;;;1.70;1.60;;;0.60;98.20;;;;;;4977966;28;20499;-79
2024/01/17 11:42:03;;;;;;;1.73;1.63;;;0.60;98.20;;;;;;4978550;28;20496;-78
2024/01/17 11:44:44;;;;;;;2.30;2.10;;;0.70;98.20;;;;;;4977902;28;20940;-78
2024/01/17 11:47:20;;;;;;;1.80;1.70;;;0.70;98.20;;;;;;4982088;28;20488;-80
2024/01/17 11:49:47;;;;;;;1.90;1.80;;;0.70;98.20;;;;;;4975828;28;20469;-80
2024/01/17 11:52:30;;;;;;;3.13;2.93;;;0.70;98.20;;;;;;4983749;28;20625;-77
2024/01/17 11:54:57;;;;;;;1.70;1.57;;;0.60;98.20;;;;;;4982359;28;21033;-78
2024/01/17 11:57:27;;;;;;;1.70;1.50;;;0.60;98.20;;;;;;4983437;28;20501;-79
2024/01/17 12:00:08;;;;;;;1.70;1.60;;;0.50;98.20;;;;;;4979431;28;20490;-76
2024/01/17 12:02:59;;;;;;;;;;;;;;;;;;;;;
2024/01/17 12:05:27;;;;;;;2.00;1.80;;;0.40;98.20;;;;;;4977993;28;20824;-78
2024/01/17 12:08:03;;;;;;;1.70;1.60;;;0.30;98.20;;;;;;4981118;28;20543;-78
2024/01/17 12:10:40;;;;;;;1.63;1.50;;;0.20;98.20;;;;;;4976231;28;22108;-77
2024/01/17 12:13:07;;;;;;;1.70;1.57;;;0.20;98.20;;;;;;4980740;28;20478;-77
2024/01/17 12:15:33;;;;;;;1.80;1.70;;;0.10;98.20;;;;;;4978573;28;20462;-77
2024/01/17 12:18:05;;;;;;;1.70;1.50;;;0.10;98.20;;;;;;4982058;28;20465;-78
2024/01/17 12:20:32;;;;;;;1.60;1.50;;;0.00;98.20;;;;;;4976257;28;20494;-77
2024/01/17 12:22:59;;;;;;;1.70;1.57;;;0.00;98.20;;;;;;4976000;28;20577;-78
2024/01/17 12:25:29;;;;;;;1.73;1.63;;;0.00;98.20;;;;;;4971963;28;20941;-76
2024/01/17 12:27:59;;;;;;;1.70;1.60;;;0.00;98.20;;;;;;4979695;28;20497;-76
2024/01/17 12:30:27;;;;;;;1.90;1.80;;;0.00;98.20;;;;;;4973120;28;20482;-77
2024/01/17 12:32:55;;;;;;;1.80;1.70;;;0.00;98.20;;;;;;4969148;28;20521;-76
2024/01/17 12:35:27;;;;;;;1.70;1.57;;;0.00;98.20;;;;;;4966207;28;20465;-77
2024/01/17 12:38:00;;;;;;;1.70;1.50;;;0.00;98.20;;;;;;4971439;28;20502;-77
2024/01/17 12:40:27;;;;;;;1.67;1.50;;;0.10;98.20;;;;;;4968619;28;20521;-77
2024/01/17 12:42:56;;;;;;;1.63;1.43;;;0.10;98.20;;;;;;4976490;28;20473;-76
2024/01/17 12:45:23;;;;;;;1.70;1.60;;;0.10;98.20;;;;;;4970613;28;20469;-77
2024/01/17 12:47:56;;;;;;;1.90;1.80;;;0.20;98.20;;;;;;4968205;28;20944;-78
2024/01/17 12:50:25;;;;;;;1.80;1.70;;;0.20;98.20;;;;;;4969630;28;20540;-79
2024/01/17 12:52:52;;;;;;;1.70;1.60;;;0.20;98.20;;;;;;4984798;28;20469;-78
2024/01/17 12:55:22;;;;;;;1.63;1.50;;;0.20;98.20;;;;;;4980449;28;20470;-78
2024/01/17 12:57:49;;;;;;;1.63;1.50;;;0.20;98.20;;;;;;4972526;28;20583;-77
2024/01/17 13:00:20;;;;;;;1.70;1.60;;;0.20;98.20;;;;;;4979627;28;20489;-77